Huvudsida
METAR-TAF:

METAR-TAF

Flygplatser :

Orange, Frankrike

latitud: 44-08N, longitud: 004-50E, höjd: 60 m

Aktuellt väderrapport

Denna rapport gjordes för 23 minuter sedan, klockan 16:00 UTC
Vind 31 kt från nord i byarna ända upp till 46 kt
Temperatur 12°C
Fuktighet 50%
Tryck 1012 hPa
Sikt 10 km eller mer
Inga moln under 1 500 m eller inga cumulonimbus

METAR: LFMO 291600Z AUTO 35031G46KT CAVOK 12/02 Q1012 NOSIG

Tid: 18:23 (16:23 UTC)

Väderprognos

Denna rapport gjordes för 2 timmar och 23 minuter sedan, klockan 14:00 UTC
Prognos gäller från 29 kl. 15 UTC till 30 kl. 15 UTC
Vind 25 kt från nord i byarna ända upp till 40 kt
Sikt 10 km eller mer
Inga moln under 1 500 m eller inga cumulonimbus
Blir
från 30 kl. 02 UTC till 30 kl. 04 UTC
Vind 20 kt från nord i byarna ända upp till 35 kt
Blir
från 30 kl. 08 UTC till 30 kl. 10 UTC
Vind 15 kt från nord i byarna ända upp till 25 kt

TAF: LFMO 291400Z 2915/3015 35025G40KT CAVOK BECMG 3002/3004 35020G35KT BECMG 3008/3010 35015G25KT

Aktuella väderrapporter och prognoser från 4000 flygplatser (METAR- och TAF-rapporter).

De tillgängliga stationerna syns som gula och röda prickar på kartan.

För musen över prickarna för att se namnen på stationerna.

Klicka sedan för att få väderrapporter och prognoser.

För att ändra kartan: Klicka på de gröna knapparna med ett svart kors på för att zooma in; den gröna knappen med ett streck på för att zooma ut; eller på de gröna pilarna för angränsande kartor.


METAR-TAF: